Карточка аэропорта UOOO

Внимание!
Информация на этой странице в стадии наполнения.
Если вы не увидели какой-то информации, или заметили неточность - пожалуйста сообщите нам!
Спасибо!
Команда RU-STAFF
Название аэропортаАлыкель
Название аэропорта (англ.)Alykel
Превышение574 ft. (175 m.)
Координаты69°19.02', 87°19.02'
Высота перехода1200m
Эшелон переходаQFE>744:FL60;744>QFE>717:FL70;717>QFE:FL80
Коды ответчика5401-5427
Зона ОрВДКрасноярск РПИ (UNKL)
Данные METARUOOO 020500Z 23006MPS 1700 R19/1900U -SN BLSN OVC011 M15/M16 Q1027 R19/491034 TEMPO 0500 SN BLSN RMK QFE754/1005
Проноз погоды (TAF)UOOO 020158Z 0203/0303 19003G08MPS 6000 -SN OVC016 TEMPO 0203/0206 1000 SN OVC011 BECMG 0206/0209 2000 SN OVC011 TEMPO 0209/0215 0700 +SN VV003 BECMG 0220/0223 6000 -SN SCT016
NOTAMshow/hide NOTAM
AWOS   TABLE

Информация о ВПП

ВПП Длина ВПП (м.) Покрытие Курс ВПП Частота ILS
013430Бетон13109.5
193430Бетон193110.3

Диспетчерские позиции

Позывной Наименование органа УВД Частота
UOOO_TWRНорильск - Старт118.300
UOOO_GNDНорильск - Руление121.700
UOOO_APPНорильск - Круг120.400



Спутниковое изображение